createdAt,value
2023-05-14T00:01:57.879Z,66.07
2023-05-14T00:04:28.492Z,66.43
2023-05-14T00:06:59.090Z,66.33
2023-05-14T00:09:30.592Z,66.33
2023-05-14T00:12:03.459Z,66.44
2023-05-14T00:14:33.637Z,66.49
2023-05-14T00:17:03.874Z,66.40
2023-05-14T00:19:34.056Z,66.49
2023-05-14T00:22:04.266Z,66.76
2023-05-14T00:24:34.778Z,66.80
2023-05-14T00:27:08.063Z,66.69
2023-05-14T00:29:38.274Z,66.37
2023-05-14T00:32:09.835Z,66.64
2023-05-14T00:34:40.068Z,66.35
2023-05-14T00:37:10.338Z,66.01
2023-05-14T00:39:40.556Z,65.56
2023-05-14T00:42:15.742Z,65.73
2023-05-14T00:44:45.968Z,65.12
2023-05-14T00:47:16.394Z,65.30
2023-05-14T00:49:46.919Z,65.32
2023-05-14T00:52:18.319Z,65.22
2023-05-14T00:54:50.151Z,65.53
2023-05-14T00:57:23.189Z,65.23
2023-05-14T00:59:53.607Z,65.31
2023-05-14T01:02:24.040Z,65.55
2023-05-14T01:04:55.036Z,66.04
2023-05-14T01:07:33.366Z,65.75
2023-05-14T01:10:09.289Z,66.25
2023-05-14T01:12:52.790Z,66.34
2023-05-14T01:15:30.331Z,66.60
2023-05-14T01:18:03.413Z,67.29
2023-05-14T01:20:34.757Z,67.38
2023-05-14T01:23:07.704Z,67.48
2023-05-14T01:25:38.017Z,67.60
2023-05-14T01:28:14.515Z,67.70
2023-05-14T01:30:49.415Z,68.22
2023-05-14T01:33:21.892Z,68.19
2023-05-14T01:35:53.876Z,68.43
2023-05-14T01:38:27.874Z,68.18
2023-05-14T01:41:01.988Z,68.12
2023-05-14T01:43:36.148Z,68.39
2023-05-14T01:46:06.661Z,68.56
2023-05-14T01:48:39.246Z,68.47
2023-05-14T01:51:09.598Z,68.64
2023-05-14T01:53:42.422Z,68.91
2023-05-14T01:56:12.710Z,69.05
2023-05-14T01:58:42.878Z,69.14
2023-05-14T02:01:13.221Z,69.37
2023-05-14T02:03:43.684Z,69.09
2023-05-14T02:06:13.996Z,69.62
2023-05-14T02:08:46.902Z,69.80
2023-05-14T02:11:17.142Z,69.68
2023-05-14T02:13:47.407Z,69.26
2023-05-14T02:16:17.772Z,69.43
2023-05-14T02:18:48.088Z,69.07
2023-05-14T02:21:18.382Z,69.22
2023-05-14T02:23:51.527Z,68.73
2023-05-14T02:26:21.778Z,68.58
2023-05-14T02:28:52.057Z,68.91
2023-05-14T02:31:22.433Z,68.81
2023-05-14T02:33:53.298Z,68.75
2023-05-14T02:36:23.607Z,69.04
2023-05-14T02:39:00.290Z,69.11
2023-05-14T02:41:30.883Z,69.20
2023-05-14T02:44:01.095Z,69.21
2023-05-14T02:46:31.441Z,69.22
2023-05-14T02:49:02.058Z,69.09
2023-05-14T02:51:32.270Z,69.22
2023-05-14T02:54:05.122Z,69.10
2023-05-14T02:56:35.820Z,68.44
2023-05-14T02:59:06.462Z,68.63
2023-05-14T03:01:37.030Z,68.02
2023-05-14T03:04:08.108Z,68.25
2023-05-14T03:06:38.337Z,68.14
2023-05-14T03:09:11.256Z,68.12
2023-05-14T03:11:44.264Z,68.44
2023-05-14T03:14:16.738Z,68.27
2023-05-14T03:16:46.956Z,68.54
2023-05-14T03:19:17.277Z,68.25
2023-05-14T03:21:47.697Z,68.65
2023-05-14T03:24:20.566Z,68.01
2023-05-14T03:26:50.779Z,67.86
2023-05-14T03:29:21.044Z,67.58
2023-05-14T03:31:51.792Z,67.49
2023-05-14T03:34:22.048Z,67.50
2023-05-14T03:36:54.659Z,66.95
2023-05-14T03:39:27.761Z,66.16
2023-05-14T03:41:59.181Z,65.82
2023-05-14T03:44:29.339Z,65.67
2023-05-14T03:46:59.539Z,65.39
2023-05-14T03:49:29.761Z,64.75
2023-05-14T03:52:00.394Z,64.72
2023-05-14T03:54:33.283Z,64.31
2023-05-14T03:57:03.460Z,64.04
2023-05-14T03:59:35.899Z,63.76
2023-05-14T04:02:06.346Z,62.38
2023-05-14T04:04:36.641Z,61.99
2023-05-14T04:07:07.323Z,61.61
2023-05-14T04:09:40.161Z,61.17
2023-05-14T04:12:11.964Z,59.99
2023-05-14T04:14:42.406Z,59.15
2023-05-14T04:17:12.614Z,58.63
2023-05-14T04:19:42.852Z,57.79
2023-05-14T04:22:13.138Z,57.29
2023-05-14T04:24:46.148Z,55.87
2023-05-14T04:27:22.661Z,55.57
2023-05-14T04:29:53.239Z,54.07
2023-05-14T04:32:23.478Z,53.99
2023-05-14T04:34:53.723Z,51.97
2023-05-14T04:37:24.004Z,50.16
2023-05-14T04:39:58.975Z,49.33
2023-05-14T04:42:29.202Z,49.51
2023-05-14T04:44:59.407Z,50.09
2023-05-14T04:47:29.973Z,49.39
2023-05-14T04:50:00.494Z,47.12
2023-05-14T04:52:30.832Z,45.24
2023-05-14T04:55:03.694Z,45.38
2023-05-14T04:57:35.358Z,46.06
2023-05-14T05:00:09.984Z,46.10
2023-05-14T05:02:43.257Z,47.55
2023-05-14T05:05:13.834Z,47.00
2023-05-14T05:07:44.047Z,46.67
2023-05-14T05:10:17.009Z,48.79
2023-05-14T05:12:47.193Z,50.63
2023-05-14T05:15:17.363Z,48.94
2023-05-14T05:17:47.609Z,49.18
2023-05-14T05:20:18.148Z,49.92
2023-05-14T05:22:48.365Z,50.60
2023-05-14T05:25:21.527Z,48.85
2023-05-14T05:27:51.729Z,48.71
2023-05-14T05:30:23.853Z,47.66
2023-05-14T05:32:54.471Z,47.64
2023-05-14T05:35:25.802Z,46.85
2023-05-14T05:37:56.082Z,47.16
2023-05-14T05:40:28.961Z,46.99
2023-05-14T05:42:59.172Z,46.44
2023-05-14T05:45:29.444Z,48.20
2023-05-14T05:48:02.375Z,48.32
2023-05-14T05:50:34.664Z,49.23
2023-05-14T05:53:04.961Z,49.68
2023-05-14T05:55:37.906Z,50.10
2023-05-14T05:58:08.149Z,49.78
2023-05-14T06:00:38.334Z,48.98
2023-05-14T06:03:11.224Z,48.42
2023-05-14T06:05:41.641Z,48.38
2023-05-14T06:08:14.553Z,47.76
2023-05-14T06:10:47.870Z,48.54
2023-05-14T06:13:18.087Z,49.87
2023-05-14T06:15:48.453Z,49.36
2023-05-14T06:18:18.718Z,50.24
2023-05-14T06:20:49.014Z,49.83
2023-05-14T06:23:19.279Z,49.71
2023-05-14T06:25:53.149Z,49.72
2023-05-14T06:28:23.336Z,49.80
2023-05-14T06:30:54.232Z,48.37
2023-05-14T06:33:31.205Z,48.94
2023-05-14T06:36:01.826Z,49.31
2023-05-14T06:38:32.042Z,48.09
2023-05-14T06:41:04.918Z,48.03
2023-05-14T06:43:35.165Z,47.43
2023-05-14T06:46:05.458Z,48.04
2023-05-14T06:48:37.700Z,48.39
2023-05-14T06:51:08.010Z,47.80
2023-05-14T06:53:40.833Z,46.85
2023-05-14T06:56:14.914Z,47.07
2023-05-14T06:58:47.253Z,46.15
2023-05-14T07:01:17.687Z,46.79
2023-05-14T07:03:47.902Z,45.97
2023-05-14T07:06:18.455Z,46.85
2023-05-14T07:08:48.927Z,46.42
2023-05-14T07:11:22.487Z,46.08
2023-05-14T07:13:52.728Z,46.26
2023-05-14T07:16:23.113Z,45.66
2023-05-14T07:18:53.510Z,46.20
2023-05-14T07:21:24.030Z,47.06
2023-05-14T07:23:54.397Z,47.32
2023-05-14T07:26:27.407Z,47.22
2023-05-14T07:28:57.627Z,46.52
2023-05-14T07:31:27.949Z,45.21
2023-05-14T07:33:58.231Z,44.27
2023-05-14T07:36:28.763Z,44.03
2023-05-14T07:38:59.084Z,45.29
2023-05-14T07:41:31.955Z,44.66
2023-05-14T07:44:02.212Z,44.66
2023-05-14T07:46:32.444Z,45.68
2023-05-14T07:49:02.698Z,45.00
2023-05-14T07:51:33.773Z,44.00
2023-05-14T07:54:04.065Z,44.51
2023-05-14T07:56:36.998Z,43.82
2023-05-14T07:59:10.066Z,44.02
2023-05-14T08:01:40.322Z,44.47
2023-05-14T08:04:11.904Z,45.47
2023-05-14T08:06:42.258Z,45.55
2023-05-14T08:09:12.506Z,45.62
2023-05-14T08:11:45.318Z,44.91
2023-05-14T08:14:16.332Z,44.10
2023-05-14T08:16:46.683Z,45.09
2023-05-14T08:19:17.099Z,45.14
2023-05-14T08:21:47.470Z,43.57
2023-05-14T08:24:17.656Z,43.18
2023-05-14T08:26:50.891Z,43.60
2023-05-14T08:29:21.208Z,42.50
2023-05-14T08:31:52.809Z,42.54
2023-05-14T08:34:23.139Z,43.54
2023-05-14T08:36:56.533Z,43.57
2023-05-14T08:39:26.756Z,42.92
2023-05-14T08:42:01.624Z,42.25
2023-05-14T08:44:37.513Z,41.69
2023-05-14T08:47:08.657Z,41.98
2023-05-14T08:49:43.818Z,42.88
2023-05-14T08:52:14.384Z,42.90
2023-05-14T08:54:44.700Z,43.25
2023-05-14T08:57:18.137Z,41.17
2023-05-14T08:59:48.724Z,40.59
2023-05-14T09:02:19.938Z,40.82
2023-05-14T09:04:50.857Z,40.26
2023-05-14T09:07:21.743Z,41.51
2023-05-14T09:09:51.926Z,40.24
2023-05-14T09:12:25.358Z,40.56
2023-05-14T09:14:55.700Z,40.57
2023-05-14T09:17:29.222Z,40.34
2023-05-14T09:19:59.630Z,39.90
2023-05-14T09:22:33.225Z,39.01
2023-05-14T09:25:09.692Z,38.87
2023-05-14T09:27:42.734Z,40.04
2023-05-14T09:30:14.659Z,38.22
2023-05-14T09:32:47.527Z,38.74
2023-05-14T09:35:22.866Z,39.13
2023-05-14T09:37:54.831Z,38.51
2023-05-14T09:40:26.751Z,37.12
2023-05-14T09:43:02.114Z,38.82
2023-05-14T09:45:35.152Z,38.92
2023-05-14T09:48:06.207Z,39.12
2023-05-14T09:50:44.564Z,37.73
2023-05-14T09:53:14.956Z,35.86
2023-05-14T09:55:45.416Z,36.72
2023-05-14T09:58:18.323Z,37.12
2023-05-14T10:00:52.203Z,37.56
2023-05-14T10:03:24.949Z,38.45
2023-05-14T10:05:55.872Z,37.65
2023-05-14T10:08:30.041Z,37.86
2023-05-14T10:11:02.396Z,39.31
2023-05-14T10:13:45.559Z,41.85
2023-05-14T10:16:22.857Z,42.23
2023-05-14T10:18:57.336Z,41.70
2023-05-14T10:21:29.799Z,41.91
2023-05-14T10:24:00.670Z,41.36
2023-05-14T10:26:31.666Z,42.87
2023-05-14T10:29:04.544Z,44.01
2023-05-14T10:31:51.865Z,43.45
2023-05-14T10:34:37.522Z,44.12
2023-05-14T10:37:09.336Z,44.98
2023-05-14T10:39:47.602Z,45.57
2023-05-14T10:42:22.985Z,45.27
2023-05-14T10:44:58.999Z,45.09
2023-05-14T10:47:29.813Z,44.00
2023-05-14T10:50:02.182Z,44.28
2023-05-14T10:52:33.404Z,44.14
2023-05-14T10:55:10.402Z,43.84
2023-05-14T10:57:44.985Z,45.01
2023-05-14T11:00:19.065Z,45.19
2023-05-14T11:02:52.450Z,45.27
2023-05-14T11:05:22.801Z,46.11
2023-05-14T11:07:55.450Z,45.44
2023-05-14T11:10:26.158Z,44.41
2023-05-14T11:12:56.624Z,45.04
2023-05-14T11:15:30.177Z,44.53
2023-05-14T11:18:00.497Z,44.72
2023-05-14T11:20:32.954Z,45.63
2023-05-14T11:23:03.748Z,44.79
2023-05-14T11:25:34.473Z,45.87
2023-05-14T11:28:04.984Z,45.83
2023-05-14T11:30:39.896Z,47.15
2023-05-14T11:33:10.336Z,46.09
2023-05-14T11:35:42.314Z,46.44
2023-05-14T11:38:17.624Z,47.12
2023-05-14T11:40:55.747Z,48.05
2023-05-14T11:43:29.484Z,47.70
2023-05-14T11:46:05.254Z,48.32
2023-05-14T11:48:36.266Z,48.46
2023-05-14T11:51:12.953Z,49.90
2023-05-14T11:53:43.292Z,50.46
2023-05-14T11:56:14.609Z,49.98
2023-05-14T11:58:51.210Z,50.39
2023-05-14T12:01:24.260Z,50.23
2023-05-14T12:03:55.148Z,51.73
2023-05-14T12:06:33.295Z,51.26
2023-05-14T12:09:03.615Z,52.99
2023-05-14T12:11:34.858Z,52.90
2023-05-14T12:14:08.145Z,52.27
2023-05-14T12:16:47.011Z,53.32
2023-05-14T12:19:19.121Z,53.43
2023-05-14T12:21:51.361Z,52.86
2023-05-14T12:24:22.700Z,53.87
2023-05-14T12:26:55.682Z,53.77
2023-05-14T12:29:25.946Z,54.33
2023-05-14T12:32:01.161Z,54.60
2023-05-14T12:34:31.312Z,56.13
2023-05-14T12:37:01.542Z,54.59
2023-05-14T12:39:31.728Z,55.67
2023-05-14T12:42:02.044Z,56.08
2023-05-14T12:44:32.416Z,55.91
2023-05-14T12:47:05.399Z,56.53
2023-05-14T12:49:35.779Z,55.07
2023-05-14T12:52:22.737Z,55.68
2023-05-14T12:54:56.394Z,55.07
2023-05-14T12:57:27.971Z,55.69
2023-05-14T12:59:58.712Z,57.30
2023-05-14T13:02:31.945Z,55.83
2023-05-14T13:05:02.968Z,57.69
2023-05-14T13:07:33.616Z,58.22
2023-05-14T13:10:05.815Z,58.36
2023-05-14T13:12:36.600Z,58.29
2023-05-14T13:15:07.569Z,58.65
2023-05-14T13:17:41.591Z,59.33
2023-05-14T13:20:16.245Z,58.13
2023-05-14T13:22:46.486Z,59.26
2023-05-14T13:25:16.744Z,59.59
2023-05-14T13:27:47.001Z,58.93
2023-05-14T13:30:17.690Z,58.76
2023-05-14T13:32:51.377Z,59.22
2023-05-14T13:35:21.816Z,59.59
2023-05-14T13:37:52.242Z,59.25
2023-05-14T13:40:22.796Z,59.31
2023-05-14T13:42:53.113Z,59.73
2023-05-14T13:45:23.485Z,59.29
2023-05-14T13:47:56.852Z,60.61
2023-05-14T13:50:27.211Z,60.34
2023-05-14T13:52:57.532Z,60.21
2023-05-14T13:55:29.468Z,61.64
2023-05-14T13:58:04.534Z,61.05
2023-05-14T14:00:34.879Z,61.50
2023-05-14T14:03:08.672Z,61.70
2023-05-14T14:05:39.459Z,62.13
2023-05-14T14:08:22.793Z,62.45
2023-05-14T14:10:55.593Z,62.17
2023-05-14T14:13:26.353Z,62.35
2023-05-14T14:15:57.080Z,62.42
2023-05-14T14:18:30.127Z,62.54
2023-05-14T14:21:00.621Z,62.55
2023-05-14T14:23:30.902Z,62.94
2023-05-14T14:26:01.154Z,63.84
2023-05-14T14:28:31.590Z,64.35
2023-05-14T14:31:01.901Z,65.39
2023-05-14T14:33:34.791Z,65.70
2023-05-14T14:36:05.132Z,65.68
2023-05-14T14:38:35.529Z,65.71
2023-05-14T14:41:07.917Z,66.54
2023-05-14T14:43:38.543Z,67.09
2023-05-14T14:46:09.599Z,68.42
2023-05-14T14:48:42.728Z,68.73
2023-05-14T14:51:15.275Z,69.70
2023-05-14T14:53:45.935Z,70.46
2023-05-14T14:56:16.211Z,71.55
2023-05-14T14:58:46.434Z,71.38
2023-05-14T15:01:17.130Z,70.77
2023-05-14T15:03:50.191Z,70.76
2023-05-14T15:06:20.625Z,70.72
2023-05-14T15:08:50.883Z,71.17
2023-05-14T15:11:21.260Z,71.04
2023-05-14T15:13:51.828Z,71.51
2023-05-14T15:16:22.138Z,72.16
2023-05-14T15:18:55.091Z,72.38
2023-05-14T15:21:27.605Z,72.96
2023-05-14T15:23:57.856Z,73.33
2023-05-14T15:26:28.362Z,74.36
2023-05-14T15:28:59.231Z,74.18
2023-05-14T15:31:31.750Z,74.49
2023-05-14T15:34:04.667Z,75.21
2023-05-14T15:36:34.995Z,75.67
2023-05-14T15:39:05.288Z,75.21
2023-05-14T15:41:42.953Z,74.99
2023-05-14T15:44:15.926Z,74.35
2023-05-14T15:46:46.258Z,73.63
2023-05-14T15:49:19.400Z,72.73
2023-05-14T15:51:49.738Z,72.94
2023-05-14T15:54:19.994Z,73.36
2023-05-14T15:56:50.298Z,74.17
2023-05-14T15:59:20.551Z,74.38
2023-05-14T16:01:50.835Z,74.96
2023-05-14T16:04:23.678Z,74.60
2023-05-14T16:06:54.513Z,75.06
2023-05-14T16:09:27.705Z,75.54
2023-05-14T16:11:57.969Z,75.59
2023-05-14T16:14:28.181Z,76.07
2023-05-14T16:16:58.485Z,76.68
2023-05-14T16:19:31.522Z,76.38
2023-05-14T16:22:04.219Z,77.15
2023-05-14T16:24:34.425Z,77.10
2023-05-14T16:27:04.726Z,77.05
2023-05-14T16:29:34.995Z,77.88
2023-05-14T16:32:05.442Z,77.64
2023-05-14T16:34:38.265Z,77.72
2023-05-14T16:37:09.653Z,77.83
2023-05-14T16:39:40.980Z,77.37
2023-05-14T16:42:11.355Z,78.10
2023-05-14T16:44:41.656Z,78.59
2023-05-14T16:47:13.321Z,78.58
2023-05-14T16:49:47.165Z,78.57
2023-05-14T16:52:17.446Z,78.64
2023-05-14T16:54:47.849Z,79.25
2023-05-14T16:57:18.235Z,78.50
2023-05-14T16:59:48.492Z,78.46
2023-05-14T17:02:18.974Z,78.86
2023-05-14T17:04:51.916Z,79.76
2023-05-14T17:07:24.652Z,80.05
2023-05-14T17:09:55.015Z,80.29
2023-05-14T17:12:25.202Z,79.95
2023-05-14T17:14:55.525Z,80.27
2023-05-14T17:17:25.785Z,80.95
2023-05-14T17:19:58.746Z,81.34
2023-05-14T17:22:29.135Z,82.64
2023-05-14T17:24:59.455Z,82.21
2023-05-14T17:27:32.021Z,81.70
2023-05-14T17:30:02.362Z,82.18
2023-05-14T17:32:33.323Z,81.38
2023-05-14T17:35:09.920Z,81.17
2023-05-14T17:37:40.231Z,81.39
2023-05-14T17:40:15.118Z,82.53
2023-05-14T17:42:48.490Z,82.89
2023-05-14T17:45:20.911Z,82.18
2023-05-14T17:47:52.770Z,81.92
2023-05-14T17:50:25.763Z,83.46
2023-05-14T17:52:58.804Z,82.27
2023-05-14T17:55:29.877Z,83.45
2023-05-14T17:58:00.195Z,82.08
2023-05-14T18:00:30.586Z,82.04
2023-05-14T18:03:00.931Z,82.58
2023-05-14T18:05:34.243Z,82.20
2023-05-14T18:08:05.161Z,81.93
2023-05-14T18:10:36.374Z,81.58
2023-05-14T18:13:06.929Z,82.43
2023-05-14T18:15:39.036Z,82.57
2023-05-14T18:18:09.664Z,83.26
2023-05-14T18:20:42.568Z,84.34
2023-05-14T18:23:13.095Z,84.51
2023-05-14T18:25:43.650Z,83.79
2023-05-14T18:28:16.817Z,83.99
2023-05-14T18:30:47.795Z,85.00
2023-05-14T18:33:18.553Z,85.42
2023-05-14T18:35:51.915Z,84.02
2023-05-14T18:38:25.592Z,83.96
2023-05-14T18:40:56.280Z,83.45
2023-05-14T18:43:26.920Z,84.07
2023-05-14T18:45:57.851Z,85.29
2023-05-14T18:48:28.615Z,84.30
2023-05-14T18:51:01.871Z,83.40
2023-05-14T18:53:32.704Z,84.30
2023-05-14T18:56:05.005Z,84.76
2023-05-14T18:58:36.185Z,84.70
2023-05-14T19:01:06.930Z,85.39
2023-05-14T19:03:37.741Z,85.22
2023-05-14T19:06:11.773Z,84.59
2023-05-14T19:08:42.684Z,85.16
2023-05-14T19:11:13.687Z,84.71
2023-05-14T19:13:46.813Z,84.96
2023-05-14T19:16:17.645Z,84.48
2023-05-14T19:18:48.457Z,84.87
2023-05-14T19:21:21.655Z,85.94
2023-05-14T19:23:52.347Z,85.06
2023-05-14T19:26:22.944Z,85.89
2023-05-14T19:28:58.595Z,84.67
2023-05-14T19:31:29.481Z,84.31
2023-05-14T19:34:00.116Z,84.97
2023-05-14T19:36:34.538Z,85.10
2023-05-14T19:39:05.432Z,84.78
2023-05-14T19:41:36.024Z,83.11
2023-05-14T19:44:06.689Z,82.36
2023-05-14T19:46:37.528Z,82.04
2023-05-14T19:49:08.134Z,81.12
2023-05-14T19:51:41.418Z,80.60
2023-05-14T19:54:11.975Z,80.61
2023-05-14T19:56:42.857Z,80.85
2023-05-14T19:59:13.479Z,81.62
2023-05-14T20:01:44.384Z,80.97
2023-05-14T20:04:16.368Z,80.80
2023-05-14T20:06:49.527Z,81.12
2023-05-14T20:09:26.223Z,80.78
2023-05-14T20:11:56.477Z,80.17
2023-05-14T20:14:26.939Z,79.29
2023-05-14T20:16:58.193Z,79.09
2023-05-14T20:19:29.692Z,78.99
2023-05-14T20:22:05.467Z,78.09
2023-05-14T20:24:35.844Z,78.13
2023-05-14T20:27:06.128Z,78.94
2023-05-14T20:29:36.539Z,78.09
2023-05-14T20:32:07.316Z,77.75
2023-05-14T20:34:37.563Z,79.33
2023-05-14T20:37:10.513Z,79.52
2023-05-14T20:39:40.792Z,78.80
2023-05-14T20:42:11.139Z,80.03
2023-05-14T20:44:41.372Z,78.47
2023-05-14T20:47:12.889Z,78.32
2023-05-14T20:49:43.123Z,78.15
2023-05-14T20:52:16.247Z,78.41
2023-05-14T20:54:46.713Z,79.02
2023-05-14T20:57:19.401Z,80.52
2023-05-14T20:59:49.642Z,79.93
2023-05-14T21:02:19.936Z,80.48
2023-05-14T21:04:51.073Z,80.60
2023-05-14T21:07:24.294Z,79.37
2023-05-14T21:09:55.075Z,79.40
2023-05-14T21:12:25.874Z,79.15
2023-05-14T21:14:56.145Z,79.88
2023-05-14T21:17:26.423Z,79.33
2023-05-14T21:19:56.716Z,79.53
2023-05-14T21:22:29.934Z,79.96
2023-05-14T21:25:00.220Z,80.29
2023-05-14T21:27:30.493Z,80.09
2023-05-14T21:30:03.086Z,80.18
2023-05-14T21:32:35.406Z,80.10
2023-05-14T21:35:05.816Z,79.53
2023-05-14T21:37:39.912Z,79.76
2023-05-14T21:40:12.642Z,79.77
2023-05-14T21:42:43.418Z,79.81
2023-05-14T21:45:14.262Z,80.16
2023-05-14T21:47:44.652Z,79.58
2023-05-14T21:50:17.173Z,81.83
2023-05-14T21:52:49.965Z,81.91
2023-05-14T21:55:20.440Z,80.59
2023-05-14T21:57:51.241Z,81.14
2023-05-14T22:00:23.610Z,82.54
2023-05-14T22:02:54.852Z,82.24
2023-05-14T22:05:25.510Z,81.56
2023-05-14T22:07:58.637Z,81.44
2023-05-14T22:10:29.057Z,81.03
2023-05-14T22:12:59.412Z,80.34
2023-05-14T22:15:29.772Z,81.17
2023-05-14T22:18:00.000Z,81.73
2023-05-14T22:20:30.386Z,81.31
2023-05-14T22:23:03.194Z,80.15
2023-05-14T22:25:33.469Z,79.99
2023-05-14T22:28:03.693Z,79.87
2023-05-14T22:30:34.024Z,79.30
2023-05-14T22:33:04.380Z,79.38
2023-05-14T22:35:34.636Z,80.24
2023-05-14T22:38:07.748Z,79.30
2023-05-14T22:40:38.210Z,78.74
2023-05-14T22:43:08.491Z,79.01
2023-05-14T22:45:38.831Z,78.60
2023-05-14T22:48:09.657Z,78.38
2023-05-14T22:50:40.119Z,78.72
2023-05-14T22:53:12.971Z,79.05
2023-05-14T22:55:43.282Z,79.42
2023-05-14T22:58:13.634Z,79.89
2023-05-14T23:00:43.963Z,79.79
2023-05-14T23:03:14.186Z,79.76
2023-05-14T23:05:44.610Z,80.01
2023-05-14T23:08:17.515Z,80.73
2023-05-14T23:10:47.762Z,80.20
2023-05-14T23:13:19.373Z,80.39
2023-05-14T23:15:49.629Z,80.65
2023-05-14T23:18:19.939Z,80.84
2023-05-14T23:20:50.263Z,80.86
2023-05-14T23:23:23.164Z,80.99
2023-05-14T23:25:53.846Z,80.80
2023-05-14T23:28:24.267Z,80.82
2023-05-14T23:30:54.456Z,81.12
2023-05-14T23:33:24.782Z,81.29
2023-05-14T23:35:57.687Z,81.04
2023-05-14T23:38:30.686Z,81.18
2023-05-14T23:41:00.911Z,81.05
2023-05-14T23:43:31.808Z,81.03
2023-05-14T23:46:04.539Z,80.64
2023-05-14T23:48:34.891Z,80.78
2023-05-14T23:51:05.173Z,80.85
2023-05-14T23:53:37.966Z,81.05
2023-05-14T23:56:09.195Z,81.31
2023-05-14T23:58:39.433Z,80.93
